Time;durP1;ratioP1;P1;durP2;ratioP2;P2;SDS_P1;SDS_P2;PMS_P1;PMS_P2;Temp;Humidity;BMP_temperature;BMP_pressure;BME280_temperature;BME280_humidity;BME280_pressure;Samples;Min_cycle;Max_cycle;Signal;HPM_P1;HPM_P2
2022/07/11 06:37:09;;;;;;;3.03;1.40;;;;;17.10;101813.00;;;;5062700;27;20527;-69
2022/07/11 06:39:55;;;;;;;1.33;1.23;;;;;17.20;101836.00;;;;5053741;28;20275;-68
2022/07/11 06:42:41;;;;;;;3.37;1.50;;;;;17.30;101846.00;;;;5037578;28;20278;-69
2022/07/11 06:45:28;;;;;;;4.07;1.67;;;;;17.30;101835.00;;;;5051428;28;20251;-68
2022/07/11 06:48:14;;;;;;;1.57;1.47;;;;;17.40;101838.00;;;;5054942;28;20225;-69
2022/07/11 06:51:00;;;;;;;1.70;1.60;;;;;17.40;101834.00;;;;5051098;28;20228;-69
2022/07/11 06:53:53;;;;;;;1.53;1.43;;;;;17.50;101839.00;;;;5055000;28;20305;-69
2022/07/11 06:56:40;;;;;;;1.90;1.50;;;;;17.50;101836.00;;;;5053719;28;20787;-68
2022/07/11 06:59:26;;;;;;;1.50;1.40;;;;;17.50;101832.00;;;;5051457;28;20605;-68
2022/07/11 07:02:12;;;;;;;1.60;1.50;;;;;17.50;101828.00;;;;5050306;28;20232;-69
2022/07/11 07:04:59;;;;;;;2.20;1.40;;;;;17.50;101821.00;;;;5051725;28;20233;-69
2022/07/11 07:07:45;;;;;;;4.07;1.50;;;;;17.50;101825.00;;;;5046741;28;20227;-69
2022/07/11 07:10:32;;;;;;;2.33;1.50;;;;;17.60;101830.00;;;;5059121;28;20240;-68
2022/07/11 07:13:20;;;;;;;2.90;1.53;;;;;17.70;101827.00;;;;5050851;28;20241;-69
2022/07/11 07:16:07;;;;;;;1.50;1.40;;;;;17.80;101823.00;;;;5048219;28;20301;-68
2022/07/11 07:18:54;;;;;;;1.50;1.40;;;;;17.90;101829.00;;;;5060901;28;20228;-69
2022/07/11 07:21:41;;;;;;;1.63;1.53;;;;;17.90;101831.00;;;;5066959;28;20807;-68
2022/07/11 07:24:27;;;;;;;2.00;1.57;;;;;17.90;101830.00;;;;5074354;28;20231;-69
2022/07/11 07:27:14;;;;;;;1.57;1.47;;;;;17.90;101829.00;;;;5080985;28;20727;-69
2022/07/11 07:30:01;;;;;;;1.53;1.43;;;;;18.00;101834.00;;;;5078581;28;20239;-69
2022/07/11 07:32:47;;;;;;;1.63;1.53;;;;;18.00;101839.00;;;;5074356;28;20306;-68
2022/07/11 07:35:33;;;;;;;2.93;1.40;;;;;18.00;101845.00;;;;5078285;28;20727;-67
2022/07/11 07:38:20;;;;;;;2.63;1.23;;;;;17.90;101836.00;;;;5076066;28;20232;-71
2022/07/11 07:41:06;;;;;;;1.90;1.70;;;;;18.00;101842.00;;;;5078230;28;20222;-70
2022/07/11 07:43:54;;;;;;;3.30;2.20;;;;;18.00;101835.00;;;;5075901;28;20285;-71
2022/07/11 07:46:40;;;;;;;1.70;1.60;;;;;18.00;101835.00;;;;5070638;28;20286;-68
2022/07/11 07:49:27;;;;;;;3.27;1.43;;;;;18.10;101831.00;;;;5057978;28;20221;-65
2022/07/11 07:52:14;;;;;;;1.93;1.37;;;;;18.20;101833.00;;;;5062340;28;20732;-69
2022/07/11 07:55:00;;;;;;;1.80;1.37;;;;;18.40;101832.00;;;;5063511;28;20287;-68
2022/07/11 07:57:47;;;;;;;1.27;1.17;;;;;18.40;101823.00;;;;5060917;28;20708;-64
2022/07/11 08:03:38;;;;;;;1.40;1.10;;;;;18.80;101821.00;;;;5061819;28;20613;-64
2022/07/11 08:06:25;;;;;;;1.13;1.10;;;;;18.80;101821.00;;;;5061794;28;20680;-66
2022/07/11 08:09:12;;;;;;;1.10;1.00;;;;;18.70;101823.00;;;;5060242;28;20236;-66
2022/07/11 08:12:05;;;;;;;1.10;1.00;;;;;18.80;101823.00;;;;5064024;28;20298;-66
2022/07/11 08:14:51;;;;;;;0.83;0.80;;;;;18.80;101821.00;;;;5060473;28;20237;-67
2022/07/11 08:17:41;;;;;;;0.90;0.90;;;;;18.80;126785.00;;;;5066964;28;20712;-65
2022/07/11 08:20:27;;;;;;;0.77;0.77;;;;;18.80;101825.00;;;;5062190;28;20235;-67
2022/07/11 08:23:14;;;;;;;1.77;0.77;;;;;18.90;101826.00;;;;5064721;28;20237;-65
2022/07/11 08:26:00;;;;;;;0.80;0.80;;;;;19.00;101829.00;;;;5064349;28;20330;-65
2022/07/11 08:28:46;;;;;;;2.20;1.10;;;;;19.20;101822.00;;;;5056815;28;20224;-65
2022/07/11 08:31:33;;;;;;;1.83;1.40;;;;;19.30;101822.00;;;;5064937;28;20755;-64
2022/07/11 08:34:21;;;;;;;0.93;0.87;;;;;19.80;101820.00;;;;5057373;28;20298;-64
2022/07/11 08:37:07;;;;;;;0.93;0.93;;;;;20.10;101820.00;;;;5057563;28;20335;-64
2022/07/11 08:39:53;;;;;;;0.90;0.80;;;;;20.20;101816.00;;;;5063747;28;20731;-63
2022/07/11 08:42:42;;;;;;;1.70;0.70;;;;;20.00;101824.00;;;;5057929;28;20235;-64
2022/07/11 08:45:31;;;;;;;0.77;0.77;;;;;19.90;101825.00;;;;5054295;28;20275;-63
2022/07/11 08:48:18;;;;;;;0.63;0.63;;;;;19.70;101823.00;;;;5054839;28;20233;-64
2022/07/11 08:51:08;;;;;;;0.67;0.67;;;;;19.50;101833.00;;;;5059273;28;20246;-63
2022/07/11 08:53:55;;;;;;;1.00;0.90;;;;;19.30;101834.00;;;;5056563;28;20224;-64
2022/07/11 08:56:45;;;;;;;0.87;0.70;;;;;19.30;101840.00;;;;5054082;28;20240;-64
2022/07/11 08:59:34;;;;;;;0.70;0.70;;;;;19.30;101848.00;;;;5056218;28;20270;-63
2022/07/11 09:02:21;;;;;;;0.67;0.67;;;;;19.20;101840.00;;;;5059255;28;20244;-64
2022/07/11 09:05:08;;;;;;;1.03;0.90;;;;;19.30;101840.00;;;;5067055;28;20594;-61
2022/07/11 09:07:56;;;;;;;2.77;0.90;;;;;19.30;101839.00;;;;5056824;28;20791;-62
2022/07/11 09:10:42;;;;;;;0.60;0.60;;;;;19.20;101830.00;;;;5059782;28;20236;-64
2022/07/11 09:13:30;;;;;;;0.70;0.70;;;;;19.30;101836.00;;;;5060238;28;20302;-63
2022/07/11 09:16:18;;;;;;;1.03;0.90;;;;;19.40;101834.00;;;;5053899;28;20310;-63
2022/07/11 09:19:21;;;;;;;0.90;0.90;;;;;19.50;101842.00;;;;5065956;28;20228;-64
2022/07/11 09:25:21;;;;;;;0.90;0.90;;;;;19.80;101829.00;;;;5057801;28;20232;-64
2022/07/11 09:28:07;;;;;;;0.73;0.73;;;;;19.70;101831.00;;;;5065471;28;20254;-64
2022/07/11 09:30:55;;;;;;;1.90;1.30;;;;;19.70;101840.00;;;;5064238;28;20236;-63
2022/07/11 09:33:58;;;;;;;1.20;1.10;;;;;19.60;101840.00;;;;5058961;28;20283;-63
2022/07/11 09:36:46;;;;;;;0.90;0.90;;;;;19.70;101832.00;;;;5060835;28;20602;-62
2022/07/11 09:39:32;;;;;;;0.77;0.77;;;;;19.50;101840.00;;;;5063006;28;20239;-63
2022/07/11 09:42:20;;;;;;;1.00;0.90;;;;;19.70;101833.00;;;;5064692;28;20301;-63
2022/07/11 09:45:12;;;;;;;1.00;0.90;;;;;19.60;101835.00;;;;5065247;28;20359;-63
2022/07/11 09:48:00;;;;;;;0.70;0.70;;;;;19.70;101844.00;;;;5066132;28;20244;-63
2022/07/11 09:51:00;;;;;;;0.80;0.80;;;;;19.60;101838.00;;;;5055272;28;20309;-63
2022/07/11 09:53:54;;;;;;;0.80;0.80;;;;;19.60;101843.00;;;;5061096;28;20310;-62
2022/07/11 09:56:42;;;;;;;0.70;0.70;;;;;19.50;101851.00;;;;5062234;28;20280;-62
2022/07/11 09:59:55;;;;;;;0.90;0.90;;;;;19.50;101837.00;;;;5059738;28;20231;-63
2022/07/11 10:02:42;;;;;;;0.90;0.90;;;;;19.70;101843.00;;;;5060809;28;20730;-63
2022/07/11 10:05:29;;;;;;;0.77;0.77;;;;;19.70;101841.00;;;;5058990;28;20231;-64
2022/07/11 10:08:15;;;;;;;0.70;0.70;;;;;19.80;101847.00;;;;5053288;28;20228;-63
2022/07/11 10:11:02;;;;;;;1.27;0.90;;;;;19.90;101843.00;;;;5048502;28;20252;-64
2022/07/11 10:13:50;;;;;;;0.77;0.70;;;;;20.00;101850.00;;;;5048217;28;20721;-64
2022/07/11 10:16:44;;;;;;;1.17;0.80;;;;;20.00;101844.00;;;;5050006;28;20358;-63
2022/07/11 10:19:43;;;;;;;0.73;0.73;;;;;20.00;101846.00;;;;5047982;28;20224;-63
2022/07/11 10:22:51;;;;;;;0.50;0.50;;;;;20.00;101840.00;;;;5048619;28;20767;-63
2022/07/11 10:25:45;;;;;;;0.83;0.83;;;;;20.10;101849.00;;;;5048410;28;20232;-63
2022/07/11 10:28:38;;;;;;;1.33;0.90;;;;;20.30;101850.00;;;;5048305;28;20224;-63
2022/07/11 10:31:27;;;;;;;1.17;1.00;;;;;20.40;101841.00;;;;5051219;28;20228;-63
2022/07/11 10:34:35;;;;;;;0.90;0.90;;;;;20.60;101850.00;;;;5059873;28;20232;-64
2022/07/11 10:37:22;;;;;;;0.80;0.80;;;;;20.70;101851.00;;;;5057781;28;20232;-62
2022/07/11 10:40:10;;;;;;;0.80;0.80;;;;;20.90;101856.00;;;;5052888;28;20357;-64
2022/07/11 10:42:56;;;;;;;1.20;0.90;;;;;20.80;101862.00;;;;5059777;28;20724;-63
2022/07/11 10:45:56;;;;;;;1.00;1.00;;;;;20.90;101869.00;;;;5052906;28;20720;-62
2022/07/11 10:48:56;;;;;;;1.07;1.07;;;;;20.70;101864.00;;;;5051071;28;20600;-63
2022/07/11 10:51:53;;;;;;;8.43;1.53;;;;;20.70;101880.00;;;;5051447;28;20775;-63
2022/07/11 10:55:13;;;;;;;0.90;0.90;;;;;20.60;101873.00;;;;5052284;28;20235;-64
2022/07/11 10:58:07;;;;;;;1.00;1.00;;;;;20.60;101865.00;;;;5051894;28;20236;-63
2022/07/11 11:01:09;;;;;;;1.07;0.80;;;;;20.60;101871.00;;;;5049583;28;20300;-64
2022/07/11 11:04:34;;;;;;;1.07;1.00;;;;;20.50;101865.00;;;;5048021;28;20362;-63
2022/07/11 11:07:40;;;;;;;1.83;0.93;;;;;20.50;101870.00;;;;5053968;28;20700;-61
2022/07/11 11:10:46;;;;;;;1.10;1.00;;;;;20.50;101873.00;;;;5047510;28;20233;-64
2022/07/11 11:13:35;;;;;;;0.90;0.90;;;;;20.70;101870.00;;;;5055183;28;20780;-64
2022/07/11 11:16:24;;;;;;;0.90;0.90;;;;;20.80;101864.00;;;;5052159;28;20229;-63
2022/07/11 11:19:52;;;;;;;0.60;0.60;;;;;20.80;101869.00;;;;5050685;28;21092;-64
2022/07/11 11:22:39;;;;;;;1.63;0.83;;;;;20.70;101863.00;;;;5055433;28;20242;-64
2022/07/11 11:25:27;;;;;;;0.80;0.80;;;;;20.80;101864.00;;;;5057504;28;20601;-63
2022/07/11 11:28:21;;;;;;;0.80;0.80;;;;;20.50;101861.00;;;;5052254;28;20244;-64
2022/07/11 11:31:07;;;;;;;0.80;0.80;;;;;20.50;101854.00;;;;5055417;28;20224;-64
2022/07/11 11:33:54;;;;;;;1.13;0.90;;;;;20.40;101859.00;;;;5064275;28;20236;-64
2022/07/11 11:36:42;;;;;;;1.40;0.90;;;;;20.50;101863.00;;;;5062899;28;20253;-63
2022/07/11 11:39:33;;;;;;;0.60;0.60;;;;;20.40;101863.00;;;;5062667;28;20426;-64
2022/07/11 11:42:19;;;;;;;0.80;0.80;;;;;20.40;101870.00;;;;5058287;28;20232;-63
2022/07/11 11:45:07;;;;;;;0.73;0.73;;;;;20.60;101872.00;;;;5052530;28;20255;-63
2022/07/11 11:47:54;;;;;;;0.87;0.87;;;;;20.60;101869.00;;;;5052596;28;20225;-62
2022/07/11 11:50:40;;;;;;;0.87;0.87;;;;;20.60;101869.00;;;;5054711;28;20232;-64
2022/07/11 11:53:27;;;;;;;0.80;0.80;;;;;20.60;101870.00;;;;5050437;28;20324;-62
2022/07/11 11:56:17;;;;;;;1.23;0.90;;;;;20.70;101862.00;;;;5055668;28;20235;-63
2022/07/11 11:59:04;;;;;;;0.87;0.87;;;;;20.70;101858.00;;;;5051226;28;20805;-63
2022/07/11 12:01:57;;;;;;;0.80;0.80;;;;;20.80;101858.00;;;;5061218;28;20241;-63
2022/07/11 12:04:43;;;;;;;0.90;0.90;;;;;20.80;101858.00;;;;5061982;28;20231;-64
2022/07/11 12:07:30;;;;;;;3.17;0.83;;;;;20.80;101852.00;;;;5057586;28;20276;-63
2022/07/11 12:10:16;;;;;;;1.00;1.00;;;;;21.00;101848.00;;;;5058040;28;21512;-62
2022/07/11 12:13:04;;;;;;;0.60;0.60;;;;;21.00;101863.00;;;;5055994;28;20238;-63
2022/07/11 12:18:54;;;;;;;1.07;1.07;;;;;21.00;101857.00;;;;5057053;28;20599;-63
2022/07/11 12:21:43;;;;;;;0.80;0.80;;;;;20.90;101851.00;;;;5056870;28;20291;-63
2022/07/11 12:24:29;;;;;;;1.03;0.90;;;;;20.90;101847.00;;;;5058632;28;20233;-63
2022/07/11 12:27:18;;;;;;;0.80;0.73;;;;;20.90;101839.00;;;;5060649;28;20708;-63
2022/07/11 12:30:07;;;;;;;1.10;1.00;;;;;20.90;101845.00;;;;5053956;28;20228;-64
2022/07/11 12:33:08;;;;;;;0.70;0.70;;;;;20.90;101851.00;;;;5055876;28;20233;-63
2022/07/11 12:35:57;;;;;;;0.80;0.80;;;;;20.80;101853.00;;;;5054574;28;20360;-61
2022/07/11 12:38:51;;;;;;;0.80;0.80;;;;;21.10;101856.00;;;;5052513;28;20238;-64
2022/07/11 12:41:37;;;;;;;0.70;0.70;;;;;21.10;101854.00;;;;5052164;28;20300;-64
2022/07/11 12:47:30;;;;;;;1.03;0.80;;;;;21.20;101851.00;;;;5052792;28;20713;-64
2022/07/11 12:50:18;;;;;;;0.70;0.70;;;;;21.20;101856.00;;;;5051028;28;20870;-64
2022/07/11 12:53:04;;;;;;;1.13;0.87;;;;;21.20;101857.00;;;;5052597;28;20237;-63
2022/07/11 12:55:51;;;;;;;0.80;0.80;;;;;21.20;101859.00;;;;5057634;28;20223;-63
2022/07/11 12:58:41;;;;;;;0.83;0.80;;;;;21.20;101859.00;;;;5058529;28;20242;-62
2022/07/11 13:01:27;;;;;;;0.73;0.73;;;;;21.10;101855.00;;;;5051961;28;20590;-66
2022/07/11 13:04:30;;;;;;;0.73;0.73;;;;;21.20;101855.00;;;;5055302;28;20293;-64
2022/07/11 13:13:49;;;;;;;0.70;0.70;;;;;21.40;101858.00;;;;5051830;28;20233;-64
2022/07/11 13:16:35;;;;;;;0.73;0.73;;;;;21.40;101846.00;;;;5053129;28;20676;-63
2022/07/11 13:19:22;;;;;;;0.70;0.70;;;;;21.50;101858.00;;;;5048660;28;20718;-64
2022/07/11 13:22:10;;;;;;;0.90;0.90;;;;;21.50;101853.00;;;;5057078;28;20308;-64
2022/07/11 13:24:56;;;;;;;1.10;1.00;;;;;21.90;101857.00;;;;5051125;28;20231;-63
2022/07/11 13:27:44;;;;;;;0.80;0.80;;;;;21.80;101856.00;;;;5059284;28;20230;-66
2022/07/11 13:30:30;;;;;;;1.00;0.90;;;;;21.90;101846.00;;;;5057934;28;20225;-64
2022/07/11 13:33:38;;;;;;;0.90;0.90;;;;;22.10;101847.00;;;;5058660;28;20604;-63
2022/07/11 13:36:24;;;;;;;0.90;0.90;;;;;22.30;101840.00;;;;5055459;28;20227;-64
2022/07/11 13:39:12;;;;;;;0.83;0.83;;;;;22.50;101843.00;;;;5056698;28;20239;-63
2022/07/11 13:41:59;;;;;;;0.70;0.70;;;;;22.70;101845.00;;;;5050624;28;20230;-62
2022/07/11 13:44:45;;;;;;;0.80;0.80;;;;;23.10;101841.00;;;;5052772;28;20246;-62
2022/07/11 13:47:32;;;;;;;1.10;1.00;;;;;23.30;101843.00;;;;5053162;28;20290;-64
2022/07/11 13:50:20;;;;;;;0.80;0.80;;;;;23.40;101842.00;;;;5050807;28;20429;-64
2022/07/11 13:53:07;;;;;;;0.80;0.80;;;;;23.20;101838.00;;;;5054620;28;20232;-63
2022/07/11 13:55:55;;;;;;;1.40;0.70;;;;;23.10;101846.00;;;;5057568;28;20239;-62
2022/07/11 13:58:42;;;;;;;0.80;0.80;;;;;23.20;101839.00;;;;5059464;28;20359;-64
2022/07/11 14:01:29;;;;;;;0.70;0.70;;;;;23.20;101839.00;;;;5060842;28;20227;-66
2022/07/11 14:04:15;;;;;;;0.70;0.70;;;;;23.20;101848.00;;;;5065106;28;20235;-64
2022/07/11 14:07:01;;;;;;;0.77;0.77;;;;;23.20;101846.00;;;;5062395;28;20236;-64
2022/07/11 14:09:48;;;;;;;0.80;0.70;;;;;23.00;101849.00;;;;5054132;28;20619;-63
2022/07/11 14:12:36;;;;;;;0.70;0.70;;;;;22.90;101850.00;;;;5054099;28;20402;-63
2022/07/11 14:15:22;;;;;;;0.80;0.80;;;;;22.70;101850.00;;;;5050039;28;20358;-64
2022/07/11 14:18:08;;;;;;;0.80;0.80;;;;;22.50;101852.00;;;;5054547;28;20232;-63
2022/07/11 14:20:55;;;;;;;0.70;0.70;;;;;22.70;101854.00;;;;5057947;28;20232;-64
2022/07/11 14:23:42;;;;;;;0.87;0.87;;;;;22.80;101852.00;;;;5054340;28;20232;-63
2022/07/11 14:26:29;;;;;;;1.07;1.00;;;;;23.00;101850.00;;;;5056660;28;20728;-63
2022/07/11 14:29:17;;;;;;;0.80;0.80;;;;;23.10;101851.00;;;;5055408;28;20223;-63
2022/07/11 14:32:04;;;;;;;0.93;0.90;;;;;23.00;101854.00;;;;5058075;28;20231;-62
2022/07/11 14:34:51;;;;;;;0.77;0.77;;;;;23.00;101846.00;;;;5050334;28;20362;-61
2022/07/11 14:37:37;;;;;;;0.80;0.80;;;;;22.80;101856.00;;;;5057951;28;20589;-64
2022/07/11 14:40:24;;;;;;;0.90;0.90;;;;;22.70;101851.00;;;;5048972;28;20338;-62
2022/07/11 14:43:14;;;;;;;0.77;0.77;;;;;22.80;101843.00;;;;5056753;28;20243;-65
2022/07/11 14:46:02;;;;;;;1.63;0.77;;;;;23.10;101840.00;;;;5055232;28;20732;-64
2022/07/11 14:48:49;;;;;;;2.37;0.80;;;;;23.00;101839.00;;;;5053717;28;20235;-64
2022/07/11 14:51:35;;;;;;;0.70;0.70;;;;;23.10;101837.00;;;;5059331;28;20378;-65
2022/07/11 14:54:42;;;;;;;2.77;1.10;;;;;23.00;101836.00;;;;5064778;28;20605;-63
2022/07/11 14:57:28;;;;;;;0.67;0.67;;;;;23.10;101832.00;;;;5061659;28;20362;-65
2022/07/11 15:00:14;;;;;;;0.70;0.70;;;;;23.10;101829.00;;;;5067058;28;20231;-64
2022/07/11 15:06:07;;;;;;;0.90;0.90;;;;;23.60;101828.00;;;;5065383;28;20220;-64
2022/07/11 15:15:01;;;;;;;2.17;0.80;;;;;204.60;224519.00;;;;5065974;28;20232;-63
2022/07/11 15:17:48;;;;;;;0.80;0.80;;;;;204.60;224519.00;;;;5061613;28;20708;-65
2022/07/11 15:20:37;;;;;;;2.10;1.00;;;;;204.60;224519.00;;;;5061814;28;20950;-64
2022/07/11 15:23:24;;;;;;;0.90;0.90;;;;;204.60;224519.00;;;;5068085;28;20394;-64
2022/07/11 15:26:10;;;;;;;0.90;0.90;;;;;204.60;224519.00;;;;5062381;28;20298;-63
2022/07/11 15:28:57;;;;;;;0.70;0.70;;;;;204.60;224519.00;;;;5069278;28;20736;-64
2022/07/11 15:31:43;;;;;;;0.70;0.70;;;;;204.60;224519.00;;;;5062383;28;20231;-65
2022/07/11 15:34:29;;;;;;;1.50;0.70;;;;;204.60;224519.00;;;;5069299;28;20601;-64
2022/07/11 15:37:18;;;;;;;0.83;0.83;;;;;204.60;224519.00;;;;5067275;28;20333;-64
2022/07/11 15:40:05;;;;;;;0.83;0.83;;;;;204.60;224519.00;;;;5065894;28;20752;-64
2022/07/11 15:42:52;;;;;;;0.70;0.70;;;;;204.60;224519.00;;;;5063926;28;20240;-62
2022/07/11 15:45:38;;;;;;;2.70;0.80;;;;;204.60;224519.00;;;;5061612;28;20235;-64
2022/07/11 15:48:25;;;;;;;1.00;1.00;;;;;204.60;224519.00;;;;5062407;28;20234;-63
2022/07/11 15:51:11;;;;;;;1.10;1.00;;;;;204.60;224519.00;;;;5066565;28;20232;-63
2022/07/11 15:53:59;;;;;;;1.67;1.10;;;;;204.60;224519.00;;;;5064539;28;20235;-63
2022/07/11 15:56:46;;;;;;;1.83;0.80;;;;;204.60;224519.00;;;;5062585;28;20595;-67
2022/07/11 15:59:34;;;;;;;0.90;0.90;;;;;204.60;224519.00;;;;5068577;28;20318;-63
2022/07/11 16:02:20;;;;;;;0.80;0.80;;;;;204.60;224519.00;;;;5066600;28;20594;-64
2022/07/11 16:05:07;;;;;;;0.70;0.70;;;;;204.60;224519.00;;;;5066446;28;20301;-64
2022/07/11 16:07:54;;;;;;;0.70;0.70;;;;;204.60;224519.00;;;;5067756;28;20273;-62
2022/07/11 16:10:41;;;;;;;2.40;0.80;;;;;204.60;224519.00;;;;5065176;28;20231;-63
2022/07/11 16:13:32;;;;;;;3.10;0.83;;;;;204.60;224519.00;;;;5066637;28;20234;-64
2022/07/11 16:16:21;;;;;;;1.00;0.90;;;;;204.60;224519.00;;;;5063382;28;20598;-62
2022/07/11 16:19:07;;;;;;;0.80;0.80;;;;;204.60;224519.00;;;;5065654;28;20226;-63
2022/07/11 16:21:53;;;;;;;3.10;0.90;;;;;204.60;224519.00;;;;5062434;28;20276;-62
2022/07/11 16:24:40;;;;;;;0.70;0.70;;;;;204.60;224519.00;;;;5064883;28;20226;-64
2022/07/11 16:27:27;;;;;;;1.70;1.00;;;;;204.60;224519.00;;;;5060562;28;20766;-65
2022/07/11 16:30:14;;;;;;;0.90;0.90;;;;;204.60;224519.00;;;;5061957;28;20357;-65
2022/07/11 16:33:00;;;;;;;1.13;0.90;;;;;204.60;224519.00;;;;5062765;28;20305;-66
2022/07/11 16:35:47;;;;;;;0.80;0.80;;;;;204.60;224519.00;;;;5067280;28;20637;-66
2022/07/11 16:38:33;;;;;;;1.90;0.90;;;;;204.60;224519.00;;;;5063746;28;20306;-65
2022/07/11 16:44:25;;;;;;;6.33;0.87;;;;;204.60;224519.00;;;;5063244;28;20281;-66
2022/07/11 16:47:11;;;;;;;0.70;0.70;;;;;204.60;224519.00;;;;5052883;28;20660;-66
2022/07/11 16:49:58;;;;;;;1.20;1.10;;;;;204.60;224519.00;;;;5053621;28;20240;-66
2022/07/11 16:52:44;;;;;;;1.00;0.90;;;;;204.60;224519.00;;;;5052082;28;20366;-66
2022/07/11 16:55:31;;;;;;;0.90;0.90;;;;;204.60;224519.00;;;;5054882;28;20216;-67
2022/07/11 16:58:18;;;;;;;0.87;0.87;;;;;204.60;224519.00;;;;5050562;28;20336;-67
2022/07/11 17:01:09;;;;;;;0.90;0.90;;;;;204.60;224519.00;;;;5050674;28;20243;-66
2022/07/11 17:03:55;;;;;;;0.70;0.70;;;;;204.60;224519.00;;;;5057275;28;20892;-66
2022/07/11 17:06:44;;;;;;;1.60;0.67;;;;;204.60;224519.00;;;;5059555;28;20224;-65
2022/07/11 17:09:31;;;;;;;0.70;0.70;;;;;204.60;224519.00;;;;5060110;28;20278;-65
2022/07/11 17:12:17;;;;;;;0.80;0.80;;;;;204.60;224519.00;;;;5057662;28;20231;-65
2022/07/11 17:15:04;;;;;;;0.80;0.80;;;;;204.60;224519.00;;;;5062590;28;20235;-65
2022/07/11 17:17:52;;;;;;;0.80;0.80;;;;;204.60;224519.00;;;;5058176;28;20253;-65
2022/07/11 17:20:39;;;;;;;0.80;0.80;;;;;204.60;224519.00;;;;5060843;28;20858;-64
2022/07/11 17:23:33;;;;;;;1.07;0.70;;;;;204.60;224519.00;;;;5052908;28;20224;-66
2022/07/11 17:26:19;;;;;;;0.93;0.90;;;;;204.60;224519.00;;;;5058521;28;20236;-64
2022/07/11 17:29:06;;;;;;;0.80;0.80;;;;;204.60;224519.00;;;;5059304;28;20221;-65
2022/07/11 17:31:52;;;;;;;0.70;0.70;;;;;204.60;224519.00;;;;5056550;28;20235;-64
2022/07/11 17:34:40;;;;;;;0.80;0.80;;;;;204.60;224519.00;;;;5050272;28;20364;-65
2022/07/11 17:37:27;;;;;;;0.70;0.70;;;;;204.60;224519.00;;;;5054466;28;20227;-64
2022/07/11 17:40:15;;;;;;;1.17;0.90;;;;;204.60;224519.00;;;;5047995;28;20245;-65
2022/07/11 17:43:02;;;;;;;0.87;0.87;;;;;204.60;224519.00;;;;5048189;28;20366;-66
2022/07/11 17:45:48;;;;;;;0.80;0.80;;;;;204.60;224519.00;;;;5048194;28;20273;-65
2022/07/11 17:48:35;;;;;;;0.80;0.80;;;;;204.60;224519.00;;;;5055656;28;20357;-65
2022/07/11 17:51:23;;;;;;;0.80;0.80;;;;;204.60;224519.00;;;;5050669;28;20232;-65
2022/07/11 17:54:13;;;;;;;1.20;0.70;;;;;204.60;224519.00;;;;5060128;28;20305;-66
2022/07/11 17:57:00;;;;;;;1.00;0.70;;;;;204.60;224519.00;;;;5055430;28;20253;-65
2022/07/11 17:59:46;;;;;;;0.77;0.77;;;;;204.60;224519.00;;;;5045484;28;20225;-65
2022/07/11 18:02:32;;;;;;;1.13;0.80;;;;;204.60;224519.00;;;;5048614;28;20235;-64
2022/07/11 18:05:19;;;;;;;0.77;0.77;;;;;204.60;224519.00;;;;5055542;28;20228;-66
2022/07/11 18:08:07;;;;;;;1.53;0.80;;;;;204.60;224519.00;;;;5049154;28;20855;-66
2022/07/11 18:10:55;;;;;;;2.00;0.80;;;;;204.60;224519.00;;;;5053500;28;20313;-64
2022/07/11 18:13:42;;;;;;;0.83;0.83;;;;;204.60;224519.00;;;;5060469;28;20229;-66
2022/07/11 18:16:28;;;;;;;1.60;0.80;;;;;204.60;224519.00;;;;5056247;28;20225;-65
2022/07/11 18:19:17;;;;;;;0.90;0.90;;;;;204.60;224519.00;;;;5048300;28;20231;-65
2022/07/11 18:22:04;;;;;;;0.70;0.70;;;;;204.60;224519.00;;;;5048599;28;20232;-65
2022/07/11 18:24:51;;;;;;;0.60;0.60;;;;;204.60;224519.00;;;;5053882;28;20286;-64
2022/07/11 18:27:38;;;;;;;0.70;0.70;;;;;204.60;224519.00;;;;5047713;28;20761;-64
2022/07/11 18:30:25;;;;;;;0.70;0.70;;;;;204.60;224519.00;;;;5047003;28;20232;-65
2022/07/11 18:33:11;;;;;;;0.70;0.70;;;;;204.60;224519.00;;;;5053540;28;20933;-66
2022/07/11 18:35:58;;;;;;;1.10;1.00;;;;;204.60;224519.00;;;;5059091;28;20779;-64
2022/07/11 18:41:50;;;;;;;1.03;0.90;;;;;204.60;224519.00;;;;5057312;28;20701;-63
2022/07/11 18:44:37;;;;;;;0.73;0.70;;;;;204.60;224519.00;;;;5057672;28;20223;-64
2022/07/11 18:47:24;;;;;;;0.70;0.70;;;;;204.60;224519.00;;;;5057142;28;20231;-65
2022/07/11 18:50:10;;;;;;;0.70;0.70;;;;;204.60;224519.00;;;;5058325;28;20333;-63
2022/07/11 18:52:57;;;;;;;0.70;0.70;;;;;204.60;224519.00;;;;5064019;28;20293;-65
2022/07/11 18:55:44;;;;;;;1.13;0.83;;;;;204.60;224519.00;;;;5045884;28;20321;-65
2022/07/11 18:58:31;;;;;;;0.80;0.80;;;;;204.60;224519.00;;;;5056484;28;20226;-63
2022/07/11 19:01:18;;;;;;;0.63;0.63;;;;;204.60;224519.00;;;;5048438;28;21016;-65
2022/07/11 19:04:05;;;;;;;1.87;0.90;;;;;204.60;224519.00;;;;5053455;28;20715;-66
2022/07/11 19:06:52;;;;;;;0.93;0.93;;;;;204.60;224519.00;;;;5063035;28;20218;-66
2022/07/11 19:09:38;;;;;;;0.90;0.90;;;;;204.60;224519.00;;;;5055340;28;20222;-65
2022/07/11 19:12:25;;;;;;;1.07;0.90;;;;;204.60;224519.00;;;;5049603;28;20229;-63
2022/07/11 19:15:13;;;;;;;0.80;0.80;;;;;204.60;224519.00;;;;5064714;28;20292;-66
2022/07/11 19:18:00;;;;;;;0.90;0.90;;;;;204.60;224519.00;;;;5058587;28;20231;-64
2022/07/11 19:20:46;;;;;;;0.80;0.80;;;;;204.60;224519.00;;;;5057274;28;20230;-65
2022/07/11 19:23:33;;;;;;;0.90;0.90;;;;;204.60;224519.00;;;;5060431;28;20358;-65
2022/07/11 19:26:19;;;;;;;0.90;0.90;;;;;204.60;224519.00;;;;5058056;28;20236;-64
2022/07/11 19:29:06;;;;;;;0.80;0.80;;;;;204.60;224519.00;;;;5053312;28;20601;-64
2022/07/11 19:31:54;;;;;;;1.00;0.90;;;;;204.60;224519.00;;;;5057979;28;20220;-64
2022/07/11 19:34:40;;;;;;;0.80;0.80;;;;;204.60;224519.00;;;;5064023;28;20224;-63
2022/07/11 19:37:27;;;;;;;0.90;0.90;;;;;204.60;224519.00;;;;5059088;28;20271;-63
2022/07/11 19:40:13;;;;;;;0.90;0.90;;;;;204.60;224519.00;;;;5059787;28;20228;-65
2022/07/11 19:42:59;;;;;;;1.00;1.00;;;;;204.60;224519.00;;;;5061380;28;20736;-65
2022/07/11 19:45:45;;;;;;;1.00;1.00;;;;;204.60;224519.00;;;;5058752;28;20247;-65
2022/07/11 19:48:33;;;;;;;9.67;5.83;;;;;204.60;224519.00;;;;5055303;28;20225;-64
2022/07/11 19:51:20;;;;;;;8.70;5.33;;;;;204.60;224519.00;;;;5055681;28;20221;-64
2022/07/11 19:57:22;;;;;;;1.97;1.77;;;;;204.60;224519.00;;;;5055448;28;20364;-64
2022/07/11 19:57:24;;;;;;;0.70;0.70;;;;;204.60;224519.00;;;;5061395;28;20254;-64
2022/07/11 20:00:12;;;;;;;0.80;0.80;;;;;204.60;224519.00;;;;5062104;28;20232;-64
2022/07/11 20:02:59;;;;;;;0.80;0.80;;;;;204.60;224519.00;;;;5061771;28;20893;-65
2022/07/11 20:05:47;;;;;;;0.90;0.90;;;;;204.60;224519.00;;;;5064567;28;20327;-63
2022/07/11 20:08:34;;;;;;;0.90;0.90;;;;;204.60;224519.00;;;;5062108;28;20271;-63
2022/07/11 20:11:20;;;;;;;1.33;0.97;;;;;204.60;224519.00;;;;5061403;28;20215;-63
2022/07/11 20:14:06;;;;;;;0.80;0.80;;;;;204.60;224519.00;;;;5064893;28;20306;-64
2022/07/11 20:16:53;;;;;;;1.00;0.90;;;;;204.60;224519.00;;;;5059687;28;20270;-66
2022/07/11 20:19:40;;;;;;;1.10;1.10;;;;;204.60;224519.00;;;;5065576;28;20410;-64
2022/07/11 20:22:28;;;;;;;1.70;0.90;;;;;204.60;224519.00;;;;5057122;28;20255;-65
2022/07/11 20:25:15;;;;;;;0.90;0.90;;;;;204.60;224519.00;;;;5066072;28;20259;-65
2022/07/11 20:28:01;;;;;;;1.03;1.03;;;;;204.60;224519.00;;;;5063477;28;20236;-65
2022/07/11 20:30:47;;;;;;;1.20;1.20;;;;;204.60;224519.00;;;;5066680;28;20231;-64
2022/07/11 20:33:34;;;;;;;0.87;0.87;;;;;204.60;224519.00;;;;5061639;28;20362;-64
2022/07/11 20:36:26;;;;;;;1.17;1.07;;;;;204.60;224519.00;;;;5062908;28;20224;-65
2022/07/11 20:39:16;;;;;;;0.90;0.90;;;;;204.60;224519.00;;;;5060723;28;20623;-65
2022/07/11 20:42:03;;;;;;;0.90;0.90;;;;;204.60;224519.00;;;;5062674;28;20228;-63
2022/07/11 20:44:50;;;;;;;1.07;1.07;;;;;204.60;224519.00;;;;5064361;28;20224;-65
2022/07/11 20:47:36;;;;;;;0.93;0.93;;;;;204.60;224519.00;;;;5062271;28;20247;-66
2022/07/11 20:50:22;;;;;;;1.00;1.00;;;;;204.60;224519.00;;;;5065587;28;20275;-65
2022/07/11 20:53:09;;;;;;;1.80;1.10;;;;;204.60;224519.00;;;;5058475;28;20717;-66
2022/07/11 20:55:57;;;;;;;1.17;1.10;;;;;204.60;224519.00;;;;5059205;28;20590;-65
2022/07/11 20:58:43;;;;;;;1.43;1.10;;;;;204.60;224519.00;;;;5057637;28;20609;-65